createdAt,value
2019-03-09T00:02:14.562Z,82.80
2019-03-09T00:04:42.813Z,83.30
2019-03-09T00:07:11.059Z,83.10
2019-03-09T00:09:39.386Z,83.00
2019-03-09T00:12:07.665Z,82.90
2019-03-09T00:14:35.970Z,82.70
2019-03-09T00:17:04.309Z,83.30
2019-03-09T00:19:32.555Z,83.50
2019-03-09T00:22:00.832Z,83.60
2019-03-09T00:24:30.930Z,84.30
2019-03-09T00:27:00.877Z,84.60
2019-03-09T00:29:30.849Z,84.40
2019-03-09T00:32:00.763Z,85.10
2019-03-09T00:34:29.027Z,85.00
2019-03-09T00:36:57.448Z,85.30
2019-03-09T00:39:25.731Z,85.50
2019-03-09T00:41:53.970Z,85.60
2019-03-09T00:44:22.337Z,85.80
2019-03-09T00:46:50.643Z,85.80
2019-03-09T00:49:18.885Z,85.80
2019-03-09T00:51:47.156Z,86.10
2019-03-09T00:54:15.430Z,86.30
2019-03-09T00:56:43.707Z,86.70
2019-03-09T00:59:11.962Z,86.80
2019-03-09T01:01:40.221Z,86.90
2019-03-09T01:04:08.491Z,86.90
2019-03-09T01:06:36.744Z,86.90
2019-03-09T01:09:07.142Z,87.40
2019-03-09T01:11:35.395Z,87.30
2019-03-09T01:14:03.716Z,87.70
2019-03-09T01:16:32.052Z,87.90
2019-03-09T01:19:00.404Z,87.80
2019-03-09T01:21:28.670Z,87.90
2019-03-09T01:23:56.915Z,88.00
2019-03-09T01:26:25.193Z,88.10
2019-03-09T01:28:53.431Z,88.20
2019-03-09T01:31:21.683Z,88.10
2019-03-09T01:33:49.958Z,88.80
2019-03-09T01:36:18.218Z,88.50
2019-03-09T01:38:48.131Z,88.70
2019-03-09T01:41:16.408Z,88.80
2019-03-09T01:43:44.676Z,89.10
2019-03-09T01:46:12.912Z,89.10
2019-03-09T01:48:41.147Z,89.10
2019-03-09T01:51:09.455Z,89.10
2019-03-09T01:53:37.726Z,89.20
2019-03-09T01:56:05.983Z,89.30
2019-03-09T01:58:34.246Z,89.60
2019-03-09T02:01:02.493Z,89.50
2019-03-09T02:03:30.790Z,89.40
2019-03-09T02:05:59.049Z,89.50
2019-03-09T02:08:27.329Z,89.20
2019-03-09T02:10:55.582Z,88.90
2019-03-09T02:13:23.859Z,88.60
2019-03-09T02:15:52.122Z,88.40
2019-03-09T02:18:20.367Z,88.50
2019-03-09T02:20:48.634Z,88.50
2019-03-09T02:23:16.908Z,88.30
2019-03-09T02:25:45.222Z,88.30
2019-03-09T02:28:13.507Z,88.10
2019-03-09T02:30:41.763Z,88.00
2019-03-09T02:33:10.077Z,88.10
2019-03-09T02:35:38.424Z,88.10
2019-03-09T02:38:08.379Z,88.10
2019-03-09T02:40:36.651Z,88.00
2019-03-09T02:43:04.951Z,87.90
2019-03-09T02:45:33.295Z,87.70
2019-03-09T02:48:01.551Z,87.50
2019-03-09T02:50:29.822Z,87.20
2019-03-09T02:52:58.070Z,87.30
2019-03-09T02:55:26.327Z,87.20
2019-03-09T02:57:54.607Z,87.10
2019-03-09T03:00:22.879Z,86.90
2019-03-09T03:02:52.865Z,86.50
2019-03-09T03:05:21.109Z,86.30
2019-03-09T03:07:49.343Z,85.70
2019-03-09T03:10:17.607Z,85.50
2019-03-09T03:12:45.856Z,85.10
2019-03-09T03:15:17.364Z,85.30
2019-03-09T03:17:45.595Z,85.20
2019-03-09T03:20:13.865Z,85.10
2019-03-09T03:22:42.127Z,84.60
2019-03-09T03:25:10.401Z,84.10
2019-03-09T03:27:38.678Z,83.90
2019-03-09T03:30:08.012Z,83.40
2019-03-09T03:32:36.914Z,83.00
2019-03-09T03:37:56.091Z,82.90
2019-03-09T03:40:24.430Z,82.90
2019-03-09T03:42:52.747Z,82.50
2019-03-09T03:45:21.016Z,82.30
2019-03-09T03:47:49.339Z,81.90
2019-03-09T03:50:17.579Z,81.30
2019-03-09T03:52:45.842Z,81.50
2019-03-09T03:55:14.111Z,81.80
2019-03-09T03:57:42.516Z,82.20
2019-03-09T04:00:12.596Z,82.60
2019-03-09T04:02:40.874Z,82.70
2019-03-09T04:05:09.091Z,82.70
2019-03-09T04:07:37.359Z,82.80
2019-03-09T04:10:08.535Z,82.40
2019-03-09T04:12:36.872Z,82.30
2019-03-09T04:15:06.268Z,81.90
2019-03-09T04:17:34.522Z,81.80
2019-03-09T04:20:03.049Z,81.70
2019-03-09T04:22:31.329Z,81.10
2019-03-09T04:24:59.645Z,80.70
2019-03-09T04:27:27.904Z,80.10
2019-03-09T04:29:56.211Z,79.60
2019-03-09T04:32:24.467Z,79.60
2019-03-09T04:34:52.729Z,78.60
2019-03-09T04:37:21.043Z,78.20
2019-03-09T04:39:49.298Z,77.40
2019-03-09T04:42:17.562Z,76.50
2019-03-09T04:44:45.824Z,75.80
2019-03-09T04:47:18.630Z,76.40
2019-03-09T04:49:46.866Z,76.80
2019-03-09T04:52:15.114Z,77.40
2019-03-09T04:54:43.378Z,77.10
2019-03-09T04:57:11.687Z,77.30
2019-03-09T04:59:39.927Z,77.60
2019-03-09T05:02:08.242Z,77.50
2019-03-09T05:04:38.874Z,75.70
2019-03-09T05:07:07.194Z,75.40
2019-03-09T05:09:38.723Z,73.60
2019-03-09T05:12:07.034Z,74.10
2019-03-09T05:14:35.331Z,73.50
2019-03-09T05:17:03.683Z,73.50
2019-03-09T05:19:31.939Z,73.70
2019-03-09T05:22:00.200Z,73.20
2019-03-09T05:24:28.539Z,73.20
2019-03-09T05:26:56.823Z,73.10
2019-03-09T05:29:25.140Z,73.10
2019-03-09T05:31:53.452Z,72.80
2019-03-09T05:34:21.692Z,73.10
2019-03-09T05:36:49.963Z,73.50
2019-03-09T05:39:18.203Z,73.10
2019-03-09T05:41:46.451Z,73.10
2019-03-09T05:44:14.720Z,72.60
2019-03-09T05:46:42.982Z,73.30
2019-03-09T05:49:11.242Z,73.50
2019-03-09T05:55:11.592Z,74.60
2019-03-09T05:57:39.818Z,75.30
2019-03-09T06:00:11.344Z,75.30
2019-03-09T06:02:39.598Z,75.70
2019-03-09T06:05:11.104Z,75.70
2019-03-09T06:07:39.361Z,75.20
2019-03-09T06:10:07.677Z,74.80
2019-03-09T06:12:35.948Z,75.00
2019-03-09T06:15:05.201Z,75.40
2019-03-09T06:17:33.467Z,75.40
2019-03-09T06:20:01.703Z,75.10
2019-03-09T06:22:29.958Z,74.90
2019-03-09T06:24:58.242Z,74.40
2019-03-09T06:27:26.494Z,74.60
2019-03-09T06:29:54.772Z,75.00
2019-03-09T06:32:26.306Z,74.80
2019-03-09T06:34:54.570Z,75.30
2019-03-09T06:37:26.738Z,71.90
2019-03-09T06:39:56.980Z,71.40
2019-03-09T06:42:28.541Z,70.20
2019-03-09T06:44:56.810Z,71.10
2019-03-09T06:47:25.045Z,72.50
2019-03-09T06:49:53.313Z,73.00
2019-03-09T06:52:21.569Z,74.50
2019-03-09T06:54:49.842Z,75.70
2019-03-09T06:57:19.035Z,75.60
2019-03-09T06:59:47.309Z,75.80
2019-03-09T07:02:15.638Z,76.20
2019-03-09T07:04:43.931Z,76.90
2019-03-09T07:07:12.186Z,77.40
2019-03-09T07:09:40.443Z,77.70
2019-03-09T07:12:08.701Z,76.60
2019-03-09T07:14:40.207Z,76.00
2019-03-09T07:17:08.483Z,75.60
2019-03-09T07:19:36.803Z,75.20
2019-03-09T07:22:05.051Z,75.30
2019-03-09T07:24:33.329Z,75.00
2019-03-09T07:27:01.576Z,75.50
2019-03-09T07:29:29.852Z,75.80
2019-03-09T07:31:58.111Z,75.90
2019-03-09T07:34:27.192Z,76.40
2019-03-09T07:36:55.462Z,76.60
2019-03-09T07:39:23.725Z,77.50
2019-03-09T07:41:51.974Z,76.90
2019-03-09T07:44:20.245Z,76.70
2019-03-09T07:46:48.505Z,77.10
2019-03-09T07:49:16.767Z,76.60
2019-03-09T07:51:45.037Z,76.80
2019-03-09T07:54:13.461Z,77.10
2019-03-09T07:56:41.685Z,76.60
2019-03-09T07:59:09.961Z,76.40
2019-03-09T08:01:38.227Z,76.30
2019-03-09T08:04:06.475Z,76.10
2019-03-09T08:06:34.706Z,76.30
2019-03-09T08:09:04.579Z,75.90
2019-03-09T08:11:32.838Z,76.00
2019-03-09T08:14:01.066Z,75.70
2019-03-09T08:16:35.839Z,75.50
2019-03-09T08:18:59.303Z,75.70
2019-03-09T08:21:27.588Z,75.40
2019-03-09T08:23:56.597Z,75.00
2019-03-09T08:26:24.994Z,74.90
2019-03-09T08:28:53.235Z,74.80
2019-03-09T08:31:21.513Z,74.30
2019-03-09T08:33:49.783Z,73.70
2019-03-09T08:36:18.066Z,73.50
2019-03-09T08:38:46.320Z,72.60
2019-03-09T08:41:14.572Z,72.80
2019-03-09T08:43:42.827Z,71.30
2019-03-09T08:46:11.106Z,71.00
2019-03-09T08:48:39.348Z,70.40
2019-03-09T08:51:07.643Z,69.50
2019-03-09T08:53:35.959Z,69.60
2019-03-09T08:56:04.199Z,69.30
2019-03-09T08:58:32.492Z,69.60
2019-03-09T09:01:00.808Z,70.00
2019-03-09T09:03:29.082Z,69.50
2019-03-09T09:06:00.295Z,69.50
2019-03-09T09:08:28.562Z,69.20
2019-03-09T09:11:01.433Z,69.20
2019-03-09T09:13:29.807Z,69.10
2019-03-09T09:15:58.047Z,68.80
2019-03-09T09:18:26.309Z,68.20
2019-03-09T09:20:54.555Z,68.60
2019-03-09T09:23:22.834Z,68.30
2019-03-09T09:25:51.069Z,68.20
2019-03-09T09:28:19.332Z,68.70
2019-03-09T09:30:50.888Z,68.70
2019-03-09T09:33:19.189Z,68.80
2019-03-09T09:35:47.514Z,69.20
2019-03-09T09:38:15.826Z,69.10
2019-03-09T09:40:44.086Z,69.10
2019-03-09T09:43:12.359Z,68.40
2019-03-09T09:45:40.606Z,68.40
2019-03-09T09:48:08.882Z,69.30
2019-03-09T09:50:37.210Z,68.30
2019-03-09T09:53:05.469Z,68.60
2019-03-09T09:55:33.778Z,67.90
2019-03-09T09:58:02.059Z,68.30
2019-03-09T10:00:30.370Z,68.00
2019-03-09T10:02:58.637Z,68.80
2019-03-09T10:05:29.803Z,69.30
2019-03-09T10:07:58.137Z,69.30
2019-03-09T10:10:26.420Z,69.80
2019-03-09T10:12:55.878Z,69.10
2019-03-09T10:15:27.294Z,69.70
2019-03-09T10:17:55.560Z,70.10
2019-03-09T10:20:23.954Z,70.20
2019-03-09T10:23:03.110Z,70.20
2019-03-09T10:25:22.278Z,70.60
2019-03-09T10:27:53.471Z,71.10
2019-03-09T10:30:22.807Z,71.00
2019-03-09T10:32:51.163Z,71.10
2019-03-09T10:35:21.049Z,71.30
2019-03-09T10:37:49.844Z,70.90
2019-03-09T10:40:18.100Z,70.80
2019-03-09T10:42:46.394Z,69.30
2019-03-09T10:45:17.932Z,69.80
2019-03-09T10:47:46.265Z,69.70
2019-03-09T10:50:15.687Z,69.50
2019-03-09T10:52:43.934Z,68.50
2019-03-09T10:55:14.759Z,68.10
2019-03-09T10:57:43.043Z,67.50
2019-03-09T11:00:16.725Z,66.90
2019-03-09T11:02:44.898Z,67.90
2019-03-09T11:05:13.143Z,68.20
2019-03-09T11:07:41.410Z,67.80
2019-03-09T11:10:09.847Z,68.20
2019-03-09T11:12:38.123Z,67.40
2019-03-09T11:15:08.127Z,67.60
2019-03-09T11:17:36.429Z,67.80
2019-03-09T11:20:08.322Z,67.10
2019-03-09T11:22:36.584Z,67.40
2019-03-09T11:25:05.124Z,66.90
2019-03-09T11:27:33.390Z,66.00
2019-03-09T11:30:01.680Z,66.70
2019-03-09T11:32:30.035Z,67.30
2019-03-09T11:34:58.309Z,66.90
2019-03-09T11:37:26.563Z,67.50
2019-03-09T11:39:55.083Z,67.60
2019-03-09T11:42:23.358Z,66.70
2019-03-09T11:44:51.630Z,67.20
2019-03-09T11:47:19.880Z,67.70
2019-03-09T11:49:48.155Z,68.50
2019-03-09T11:52:20.512Z,68.80
2019-03-09T11:54:46.415Z,69.10
2019-03-09T11:57:15.878Z,69.40
2019-03-09T11:59:44.128Z,69.80
2019-03-09T12:02:13.238Z,69.20
2019-03-09T12:04:46.655Z,68.70
2019-03-09T12:07:13.352Z,69.20
2019-03-09T12:09:41.593Z,69.80
2019-03-09T12:12:09.842Z,69.50
2019-03-09T12:14:38.111Z,69.10
2019-03-09T12:17:12.630Z,69.70
2019-03-09T12:19:36.384Z,69.50
2019-03-09T12:22:04.658Z,70.10
2019-03-09T12:24:32.945Z,70.50
2019-03-09T12:27:01.258Z,70.80
2019-03-09T12:29:29.487Z,70.60
2019-03-09T12:31:57.736Z,70.60
2019-03-09T12:34:26.063Z,70.60
2019-03-09T12:36:54.321Z,70.80
2019-03-09T12:39:22.649Z,70.80
2019-03-09T12:41:52.512Z,71.00
2019-03-09T12:44:21.076Z,71.30
2019-03-09T12:46:49.316Z,71.20
2019-03-09T12:49:17.593Z,71.10
2019-03-09T12:51:45.855Z,71.40
2019-03-09T12:54:14.192Z,70.70
2019-03-09T12:56:42.463Z,70.90
2019-03-09T12:59:10.725Z,71.70
2019-03-09T13:01:38.983Z,72.20
2019-03-09T13:04:10.330Z,72.30
2019-03-09T13:06:38.590Z,72.80
2019-03-09T13:09:06.851Z,73.10
2019-03-09T13:11:35.102Z,72.90
2019-03-09T13:14:03.350Z,73.10
2019-03-09T13:16:31.625Z,73.50
2019-03-09T13:18:59.893Z,75.10
2019-03-09T13:21:28.128Z,76.30
2019-03-09T13:23:56.406Z,75.70
2019-03-09T13:26:24.669Z,75.60
2019-03-09T13:28:52.951Z,77.70
2019-03-09T13:31:21.194Z,79.40
2019-03-09T13:33:49.455Z,76.40
2019-03-09T13:36:17.728Z,75.00
2019-03-09T13:38:46.042Z,76.00
2019-03-09T13:41:14.389Z,76.40
2019-03-09T13:43:42.623Z,77.50
2019-03-09T13:46:10.878Z,77.30
2019-03-09T13:48:39.154Z,75.80
2019-03-09T13:51:07.429Z,76.70
2019-03-09T13:53:35.706Z,76.70
2019-03-09T13:56:03.955Z,78.00
2019-03-09T13:58:32.250Z,79.80
2019-03-09T14:01:00.502Z,81.80
2019-03-09T14:03:28.751Z,83.30
2019-03-09T14:05:57.019Z,83.20
2019-03-09T14:08:25.274Z,82.60
2019-03-09T14:10:53.795Z,81.50
2019-03-09T14:13:22.053Z,78.30
2019-03-09T14:15:50.290Z,79.60
2019-03-09T14:18:20.209Z,79.50
2019-03-09T14:20:48.594Z,80.60
2019-03-09T14:23:16.945Z,82.50
2019-03-09T14:25:45.201Z,83.50
2019-03-09T14:28:13.444Z,83.50
2019-03-09T14:30:41.714Z,83.30
2019-03-09T14:33:09.990Z,83.00
2019-03-09T14:35:40.685Z,82.60
2019-03-09T14:38:08.999Z,83.10
2019-03-09T14:40:47.895Z,82.50
2019-03-09T14:43:16.400Z,83.00
2019-03-09T14:46:00.834Z,82.70
2019-03-09T14:49:01.564Z,82.60
2019-03-09T14:51:38.948Z,82.70
2019-03-09T14:57:05.443Z,81.00
2019-03-09T15:05:32.769Z,79.40
2019-03-09T15:08:13.031Z,79.50
2019-03-09T15:10:49.314Z,78.60
2019-03-09T15:13:28.324Z,78.30
2019-03-09T15:16:27.061Z,77.70
2019-03-09T15:24:38.838Z,76.30
2019-03-09T15:27:13.085Z,76.60
2019-03-09T15:30:24.627Z,76.60
2019-03-09T15:32:56.872Z,76.70
2019-03-09T15:35:25.213Z,76.30
2019-03-09T15:38:02.438Z,76.30
2019-03-09T15:40:30.772Z,76.20
2019-03-09T15:42:59.008Z,76.10
2019-03-09T15:45:30.104Z,76.60
2019-03-09T15:47:58.518Z,76.90
2019-03-09T15:50:26.856Z,76.20
2019-03-09T15:55:52.346Z,76.30
2019-03-09T15:58:59.152Z,75.80
2019-03-09T16:05:01.073Z,77.10
2019-03-09T16:07:37.809Z,76.50
2019-03-09T16:10:09.360Z,77.10
2019-03-09T16:12:39.335Z,76.00
2019-03-09T16:15:14.362Z,76.20
2019-03-09T16:17:46.731Z,76.10
2019-03-09T16:22:58.784Z,76.20
2019-03-09T16:25:28.824Z,76.20
2019-03-09T16:27:57.312Z,76.10
2019-03-09T16:30:27.247Z,76.50
2019-03-09T16:32:56.536Z,76.50
2019-03-09T16:36:14.148Z,76.50
2019-03-09T16:38:56.874Z,76.30
2019-03-09T16:41:25.364Z,77.10
2019-03-09T16:44:05.730Z,77.00
2019-03-09T16:46:35.683Z,76.80
2019-03-09T16:49:04.377Z,76.20
2019-03-09T16:51:36.938Z,76.70
2019-03-09T16:54:08.285Z,76.60
2019-03-09T16:56:37.625Z,76.40
2019-03-09T16:59:05.900Z,76.80
2019-03-09T17:01:34.206Z,77.30
2019-03-09T17:04:02.452Z,77.90
2019-03-09T17:09:23.550Z,77.50
2019-03-09T17:11:52.169Z,77.30
2019-03-09T17:14:20.418Z,77.70
2019-03-09T17:16:52.054Z,77.30
2019-03-09T17:19:23.764Z,77.10
2019-03-09T17:21:53.696Z,77.40
2019-03-09T17:24:25.031Z,77.50
2019-03-09T17:26:54.914Z,77.50
2019-03-09T17:29:23.231Z,77.80
2019-03-09T17:31:54.548Z,77.10
2019-03-09T17:34:30.489Z,77.10
2019-03-09T17:36:59.111Z,77.20
2019-03-09T17:45:25.640Z,76.40
2019-03-09T17:47:55.734Z,75.80
2019-03-09T17:50:24.407Z,76.40
2019-03-09T17:52:52.651Z,76.00
2019-03-09T17:58:49.178Z,76.00
2019-03-09T18:01:21.444Z,75.70
2019-03-09T18:03:51.392Z,75.70
2019-03-09T18:06:19.620Z,75.70
2019-03-09T18:08:47.902Z,75.90
2019-03-09T18:11:16.167Z,75.40
2019-03-09T18:14:06.610Z,75.80
2019-03-09T18:16:52.285Z,75.40
2019-03-09T18:19:12.027Z,76.30
2019-03-09T18:21:43.239Z,75.60
2019-03-09T18:24:15.935Z,75.90
2019-03-09T18:26:49.577Z,76.20
2019-03-09T18:29:30.230Z,76.10
2019-03-09T18:32:01.624Z,76.10
2019-03-09T18:34:32.770Z,76.50
2019-03-09T18:37:01.412Z,76.40
2019-03-09T18:39:36.184Z,76.70
2019-03-09T18:42:12.958Z,76.70
2019-03-09T18:44:41.223Z,76.80
2019-03-09T18:50:20.071Z,77.50
2019-03-09T18:52:48.353Z,77.70
2019-03-09T18:55:19.370Z,78.10
2019-03-09T18:57:56.510Z,78.30
2019-03-09T19:03:44.827Z,79.30
2019-03-09T19:06:13.180Z,79.40
2019-03-09T19:14:47.559Z,79.70
2019-03-09T19:17:22.003Z,79.90
2019-03-09T19:19:56.167Z,79.90
2019-03-09T19:22:27.271Z,79.40
2019-03-09T19:25:01.267Z,79.00
2019-03-09T19:27:29.550Z,77.90
2019-03-09T19:33:38.362Z,75.10
2019-03-09T19:36:13.953Z,75.10
2019-03-09T19:38:51.114Z,75.10
2019-03-09T19:41:23.378Z,75.30
2019-03-09T19:43:51.662Z,75.10
2019-03-09T19:46:27.027Z,75.10
2019-03-09T19:48:55.470Z,75.30
2019-03-09T19:51:57.091Z,75.50
2019-03-09T19:54:32.743Z,76.20
2019-03-09T19:57:03.566Z,75.80
2019-03-09T19:59:36.137Z,75.30
2019-03-09T20:04:57.095Z,75.00
2019-03-09T20:07:25.424Z,74.70
2019-03-09T20:10:05.750Z,74.50
2019-03-09T20:12:34.036Z,74.50
2019-03-09T20:15:02.316Z,73.90
2019-03-09T20:21:00.425Z,74.00
2019-03-09T20:26:39.224Z,74.30
2019-03-09T20:29:07.550Z,74.00
2019-03-09T20:31:38.749Z,74.10
2019-03-09T20:34:08.646Z,74.30
2019-03-09T20:36:45.595Z,74.20
2019-03-09T20:42:06.112Z,74.40
2019-03-09T20:44:52.037Z,75.00
2019-03-09T20:47:20.467Z,75.10
2019-03-09T20:49:50.392Z,75.00
2019-03-09T20:52:23.257Z,74.70
2019-03-09T20:54:57.570Z,73.90
2019-03-09T20:57:26.169Z,73.80
2019-03-09T21:00:09.682Z,74.10
2019-03-09T21:02:39.726Z,73.70
2019-03-09T21:05:13.796Z,72.90
2019-03-09T21:07:55.239Z,72.40
2019-03-09T21:10:26.169Z,70.10
2019-03-09T21:12:57.763Z,69.70
2019-03-09T21:15:41.813Z,68.40
2019-03-09T21:24:20.124Z,68.70
2019-03-09T21:26:50.555Z,68.80
2019-03-09T21:29:24.668Z,68.30
2019-03-09T21:31:53.189Z,68.60
2019-03-09T21:34:27.917Z,68.70
2019-03-09T21:37:11.789Z,68.80
2019-03-09T21:42:46.817Z,69.60
2019-03-09T21:45:24.235Z,69.90
2019-03-09T21:47:55.460Z,70.40
2019-03-09T21:59:29.677Z,72.00
2019-03-09T22:01:58.418Z,71.80
2019-03-09T22:07:26.094Z,71.60
2019-03-09T22:10:09.334Z,71.50
2019-03-09T22:15:31.349Z,71.80
2019-03-09T22:19:07.251Z,72.10
2019-03-09T22:21:55.711Z,72.30
2019-03-09T22:24:24.255Z,72.50
2019-03-09T22:26:52.863Z,72.50
2019-03-09T22:35:23.794Z,72.80
2019-03-09T22:38:01.196Z,73.00
2019-03-09T22:40:42.492Z,73.10
2019-03-09T22:43:12.987Z,73.20
2019-03-09T22:45:41.300Z,73.70
2019-03-09T22:48:09.799Z,74.00
2019-03-09T22:50:38.339Z,74.30
2019-03-09T22:53:06.711Z,73.00
2019-03-09T22:59:55.111Z,72.00
2019-03-09T23:02:44.700Z,70.90
2019-03-09T23:05:18.993Z,71.00
2019-03-09T23:07:51.009Z,69.60
2019-03-09T23:10:33.536Z,69.70
2019-03-09T23:13:02.583Z,69.30
2019-03-09T23:15:31.579Z,69.20
2019-03-09T23:18:04.974Z,69.50
2019-03-09T23:20:34.961Z,69.80
2019-03-09T23:23:04.139Z,69.30
2019-03-09T23:25:33.742Z,69.70
2019-03-09T23:28:10.247Z,69.00
2019-03-09T23:33:31.067Z,68.80
2019-03-09T23:39:24.619Z,69.40
2019-03-09T23:41:58.381Z,69.60
2019-03-09T23:44:31.163Z,69.40
2019-03-09T23:47:11.338Z,69.60
2019-03-09T23:49:58.860Z,69.90
2019-03-09T23:52:37.248Z,70.30
2019-03-09T23:55:23.175Z,70.30
2019-03-09T23:58:16.730Z,70.40
